Time;durP1;ratioP1;P1;durP2;ratioP2;P2;SDS_P1;SDS_P2;PMS_P1;PMS_P2;Temp;Humidity;BMP_temperature;BMP_pressure;BME280_temperature;BME280_humidity;BME280_pressure;Samples;Min_cycle;Max_cycle;Signal;HPM_P1;HPM_P2
2024/04/01 00:01:33;;;;;;;11.32;3.60;;;;;;;;;;5059625;28;20083;-66
2024/04/01 00:03:59;;;;;;;10.93;3.72;;;;;;;;;;5062637;28;20052;-67
2024/04/01 00:06:25;;;;;;;9.68;3.53;;;;;;;;;;5079752;28;20095;-66
2024/04/01 00:08:52;;;;;;;9.60;2.90;;;;;;;;;;5070143;28;20048;-67
2024/04/01 00:11:21;;;;;;;8.57;3.03;;;;;;;;;;5051578;28;20049;-65
2024/04/01 00:13:48;;;;;;;10.30;3.25;;;;;;;;;;5047335;28;20057;-68
2024/04/01 00:16:14;;;;;;;10.77;3.28;;;;;;;;;;5047054;28;20098;-67
2024/04/01 00:18:41;;;;;;;8.02;2.78;;;;;;;;;;5057249;28;20041;-66
2024/04/01 00:21:06;;;;;;;10.15;3.08;;;;;;;;;;5052468;28;20045;-68
2024/04/01 00:23:36;;;;;;;8.10;2.78;;;;;;;;;;5045088;28;20063;-67
2024/04/01 00:26:01;;;;;;;6.13;2.90;;;;;;;;;;5052807;28;20044;-65
2024/04/01 00:28:30;;;;;;;9.63;2.88;;;;;;;;;;5056773;28;20115;-65
2024/04/01 00:30:55;;;;;;;6.20;2.50;;;;;;;;;;5057627;28;20058;-68
2024/04/01 00:33:22;;;;;;;7.28;3.08;;;;;;;;;;5047536;28;20052;-66
2024/04/01 00:35:48;;;;;;;6.70;3.63;;;;;;;;;;5056855;28;20109;-69
2024/04/01 00:38:14;;;;;;;7.53;3.13;;;;;;;;;;5040944;28;20049;-66
2024/04/01 00:40:40;;;;;;;7.72;3.08;;;;;;;;;;5043211;28;20055;-66
2024/04/01 00:43:07;;;;;;;9.65;3.85;;;;;;;;;;5041631;28;20060;-63
2024/04/01 00:45:39;;;;;;;8.35;3.05;;;;;;;;;;5012750;28;20435;-66
2024/04/01 00:48:06;;;;;;;10.05;3.20;;;;;;;;;;5042055;28;20045;-65
2024/04/01 00:50:35;;;;;;;6.78;2.80;;;;;;;;;;5012499;28;20053;-66
2024/04/01 00:53:02;;;;;;;10.05;2.75;;;;;;;;;;5032641;28;20056;-65
2024/04/01 00:55:29;;;;;;;10.70;3.33;;;;;;;;;;5016446;28;20052;-66
2024/04/01 00:57:57;;;;;;;9.25;2.75;;;;;;;;;;5021310;28;20057;-65
2024/04/01 01:00:23;;;;;;;11.40;2.70;;;;;;;;;;5042834;28;20153;-65
2024/04/01 01:02:51;;;;;;;9.80;2.63;;;;;;;;;;5051308;28;20068;-65
2024/04/01 01:05:21;;;;;;;7.88;2.67;;;;;;;;;;5045488;28;20053;-65
2024/04/01 01:07:49;;;;;;;8.40;2.88;;;;;;;;;;5050815;28;20119;-66
2024/04/01 01:10:16;;;;;;;;;;;;;;;;;;5054679;28;20060;-66
2024/04/01 01:12:42;;;;;;;9.02;2.35;;;;;;;;;;5043700;28;19924;-66
2024/04/01 01:15:12;;;;;;;10.13;3.00;;;;;;;;;;5061886;28;20060;-65
2024/04/01 01:17:39;;;;;;;8.73;2.85;;;;;;;;;;5047551;28;20126;-66
2024/04/01 01:20:11;;;;;;;7.57;2.90;;;;;;;;;;5054816;28;20090;-66
2024/04/01 01:22:39;;;;;;;7.68;2.40;;;;;;;;;;5049091;28;20087;-65
2024/04/01 01:25:07;;;;;;;7.07;2.58;;;;;;;;;;5050985;28;20072;-66
2024/04/01 01:27:33;;;;;;;9.25;2.88;;;;;;;;;;5048027;28;20270;-65
2024/04/01 01:30:00;;;;;;;3.88;2.20;;;;;;;;;;5052540;28;20133;-66
2024/04/01 01:32:25;;;;;;;10.95;2.47;;;;;;;;;;5062945;28;20064;-65
2024/04/01 01:34:53;;;;;;;6.57;2.28;;;;;;;;;;5049842;28;20198;-65
2024/04/01 01:37:19;;;;;;;9.50;2.65;;;;;;;;;;5051150;28;20144;-67
2024/04/01 01:39:47;;;;;;;10.00;2.65;;;;;;;;;;5056016;28;20060;-66
2024/04/01 01:42:13;;;;;;;10.35;2.40;;;;;;;;;;5054629;28;20067;-65
2024/04/01 01:44:39;;;;;;;6.93;2.45;;;;;;;;;;5037380;28;20298;-66
2024/04/01 01:47:05;;;;;;;7.28;2.00;;;;;;;;;;5055093;28;20160;-64
2024/04/01 01:49:32;;;;;;;8.30;2.20;;;;;;;;;;5047764;28;20052;-68
2024/04/01 01:51:57;;;;;;;3.92;1.90;;;;;;;;;;5048312;28;20089;-65
2024/04/01 01:54:25;;;;;;;9.98;2.25;;;;;;;;;;5051605;28;20067;-64
2024/04/01 01:56:52;;;;;;;6.00;1.98;;;;;;;;;;5051625;28;20502;-66
2024/04/01 01:59:21;;;;;;;6.07;2.35;;;;;;;;;;5054054;28;20055;-65
2024/04/01 02:01:47;;;;;;;12.93;2.90;;;;;;;;;;5055072;28;20063;-64
2024/04/01 02:04:14;;;;;;;6.90;2.33;;;;;;;;;;5001613;28;20057;-64
2024/04/01 02:06:40;;;;;;;10.15;2.45;;;;;;;;;;5053721;28;20052;-65
2024/04/01 02:09:08;;;;;;;7.35;2.53;;;;;;;;;;5054021;28;20061;-66
2024/04/01 02:11:33;;;;;;;6.32;2.13;;;;;;;;;;5056778;28;20056;-66
2024/04/01 02:14:02;;;;;;;9.20;2.83;;;;;;;;;;5049216;28;20171;-66
2024/04/01 02:16:27;;;;;;;5.75;2.67;;;;;;;;;;5055749;28;20044;-66
2024/04/01 02:18:54;;;;;;;9.80;2.53;;;;;;;;;;5047072;28;20059;-65
2024/04/01 02:21:20;;;;;;;5.35;2.38;;;;;;;;;;5050543;28;20057;-64
2024/04/01 02:23:47;;;;;;;13.48;3.05;;;;;;;;;;5042369;28;20058;-67
2024/04/01 02:26:13;;;;;;;11.18;3.10;;;;;;;;;;5052138;28;20046;-66
2024/04/01 02:28:40;;;;;;;5.18;2.30;;;;;;;;;;5051228;28;20044;-65
2024/04/01 02:31:07;;;;;;;6.90;2.53;;;;;;;;;;5049485;28;20052;-65
2024/04/01 02:33:34;;;;;;;6.22;2.45;;;;;;;;;;5047872;28;20052;-66
2024/04/01 02:36:00;;;;;;;6.03;2.53;;;;;;;;;;5060794;28;20324;-65
2024/04/01 02:38:26;;;;;;;10.68;2.50;;;;;;;;;;5055447;28;20118;-65
2024/04/01 02:40:52;;;;;;;6.53;2.67;;;;;;;;;;5056746;28;20071;-65
2024/04/01 02:43:19;;;;;;;4.90;2.33;;;;;;;;;;5038948;28;20048;-66
2024/04/01 02:45:50;;;;;;;9.13;2.80;;;;;;;;;;5045673;28;20068;-67
2024/04/01 02:48:18;;;;;;;8.07;2.45;;;;;;;;;;5034238;28;20161;-66
2024/04/01 02:50:44;;;;;;;10.57;2.67;;;;;;;;;;5035652;28;20049;-66
2024/04/01 02:53:11;;;;;;;5.78;2.55;;;;;;;;;;5046649;28;20066;-66
2024/04/01 02:55:37;;;;;;;4.22;2.08;;;;;;;;;;5019747;28;20056;-65
2024/04/01 02:58:04;;;;;;;6.60;2.45;;;;;;;;;;5029300;28;20083;-66
2024/04/01 03:00:29;;;;;;;5.97;2.45;;;;;;;;;;5053791;28;20052;-66
2024/04/01 03:02:58;;;;;;;5.55;2.40;;;;;;;;;;5039873;28;20057;-66
2024/04/01 03:05:27;;;;;;;5.88;2.42;;;;;;;;;;5023549;28;20072;-66
2024/04/01 03:07:53;;;;;;;6.25;2.08;;;;;;;;;;5046149;28;20044;-65
2024/04/01 03:10:19;;;;;;;5.38;2.10;;;;;;;;;;5055717;28;20049;-67
2024/04/01 03:12:49;;;;;;;7.38;2.67;;;;;;;;;;5046137;28;20056;-66
2024/04/01 03:15:16;;;;;;;7.82;1.90;;;;;;;;;;5049713;28;20049;-67
2024/04/01 03:17:44;;;;;;;7.50;2.00;;;;;;;;;;5044780;28;20044;-65
2024/04/01 03:20:11;;;;;;;6.78;2.60;;;;;;;;;;5044390;28;21454;-65
2024/04/01 03:22:39;;;;;;;8.38;2.20;;;;;;;;;;5054178;28;20106;-66
2024/04/01 03:25:05;;;;;;;5.35;2.03;;;;;;;;;;5048958;28;20041;-68
2024/04/01 03:27:32;;;;;;;7.20;2.42;;;;;;;;;;5056780;28;20055;-66
2024/04/01 03:29:57;;;;;;;8.93;2.20;;;;;;;;;;5054045;28;20194;-66
2024/04/01 03:32:24;;;;;;;4.60;2.22;;;;;;;;;;5048553;28;20049;-66
2024/04/01 03:34:50;;;;;;;4.32;1.95;;;;;;;;;;5046677;28;20193;-68
2024/04/01 03:37:17;;;;;;;7.78;2.10;;;;;;;;;;5053749;28;20057;-67
2024/04/01 03:39:47;;;;;;;6.53;1.88;;;;;;;;;;5052188;28;20060;-66
2024/04/01 03:42:14;;;;;;;4.30;2.08;;;;;;;;;;5052296;28;20052;-68
2024/04/01 03:44:42;;;;;;;6.53;2.25;;;;;;;;;;5036935;28;20105;-65
2024/04/01 03:47:07;;;;;;;8.70;2.00;;;;;;;;;;5052232;28;20059;-66
2024/04/01 03:49:34;;;;;;;3.90;1.92;;;;;;;;;;5070169;28;20457;-66
2024/04/01 03:52:00;;;;;;;5.30;2.10;;;;;;;;;;5049889;28;20072;-66
2024/04/01 03:54:27;;;;;;;8.60;2.28;;;;;;;;;;5052142;28;20279;-67
2024/04/01 03:56:54;;;;;;;5.13;2.28;;;;;;;;;;5056447;28;20053;-67
2024/04/01 03:59:21;;;;;;;5.35;2.20;;;;;;;;;;5057650;28;20048;-65
2024/04/01 04:01:46;;;;;;;4.63;1.88;;;;;;;;;;5055445;28;20072;-67
2024/04/01 04:04:14;;;;;;;5.13;2.28;;;;;;;;;;5048440;28;20048;-67
2024/04/01 04:06:40;;;;;;;7.75;2.70;;;;;;;;;;5057359;28;20056;-66
2024/04/01 04:09:15;;;;;;;6.03;2.30;;;;;;;;;;5057187;28;20059;-66
2024/04/01 04:11:41;;;;;;;5.15;2.13;;;;;;;;;;5055892;28;20060;-65
2024/04/01 04:14:09;;;;;;;3.78;1.80;;;;;;;;;;5043557;28;20063;-67
2024/04/01 04:16:35;;;;;;;8.50;2.20;;;;;;;;;;5057149;28;20052;-66
2024/04/01 04:19:02;;;;;;;7.90;2.10;;;;;;;;;;5054223;28;20052;-67
2024/04/01 04:21:27;;;;;;;4.78;2.38;;;;;;;;;;5054107;28;20087;-67
2024/04/01 04:23:55;;;;;;;6.40;2.22;;;;;;;;;;5052253;28;20132;-66
2024/04/01 04:26:20;;;;;;;5.50;1.92;;;;;;;;;;5053845;28;20148;-66
2024/04/01 04:28:47;;;;;;;9.70;2.55;;;;;;;;;;5056359;28;20067;-66
2024/04/01 04:31:15;;;;;;;4.38;1.98;;;;;;;;;;5058658;28;20052;-64
2024/04/01 04:33:44;;;;;;;5.10;2.38;;;;;;;;;;5052681;28;20056;-66
2024/04/01 04:36:10;;;;;;;5.75;2.35;;;;;;;;;;5051131;28;20140;-65
2024/04/01 04:38:36;;;;;;;4.78;2.20;;;;;;;;;;5057452;28;20052;-66
2024/04/01 04:41:04;;;;;;;7.68;2.42;;;;;;;;;;5045485;28;20146;-65
2024/04/01 04:43:31;;;;;;;10.05;2.53;;;;;;;;;;5061543;28;20043;-64
2024/04/01 04:45:56;;;;;;;5.68;2.42;;;;;;;;;;5044811;28;20113;-65
2024/04/01 04:48:25;;;;;;;5.03;2.25;;;;;;;;;;5057782;28;20053;-66
2024/04/01 04:50:50;;;;;;;7.47;2.83;;;;;;;;;;5057293;28;20052;-64
2024/04/01 04:53:17;;;;;;;6.20;2.25;;;;;;;;;;5052494;28;20040;-64
2024/04/01 04:55:46;;;;;;;6.07;2.63;;;;;;;;;;5034665;28;20049;-66
2024/04/01 04:58:12;;;;;;;7.75;3.10;;;;;;;;;;5050785;28;20058;-65
2024/04/01 05:00:38;;;;;;;8.07;2.47;;;;;;;;;;5050506;28;20094;-65
2024/04/01 05:03:06;;;;;;;8.43;2.72;;;;;;;;;;5053198;28;20041;-67
2024/04/01 05:05:36;;;;;;;6.90;2.73;;;;;;;;;;5051247;28;20055;-66
2024/04/01 05:08:03;;;;;;;5.82;2.42;;;;;;;;;;5041102;28;20121;-67
2024/04/01 05:10:30;;;;;;;8.07;2.30;;;;;;;;;;5054201;28;20040;-68
2024/04/01 05:12:56;;;;;;;9.32;3.00;;;;;;;;;;5044932;28;20072;-68
2024/04/01 05:15:25;;;;;;;5.82;2.65;;;;;;;;;;5038304;28;20056;-69
2024/04/01 05:17:52;;;;;;;;;;;;;;;;;;5046605;28;20407;-64
2024/04/01 05:20:18;;;;;;;8.77;2.42;;;;;;;;;;5048576;28;19924;-65
2024/04/01 05:22:48;;;;;;;6.85;2.67;;;;;;;;;;5052061;28;20063;-67
2024/04/01 05:25:14;;;;;;;5.57;2.47;;;;;;;;;;5015174;28;20052;-64
2024/04/01 05:27:43;;;;;;;7.57;2.60;;;;;;;;;;5041962;28;20063;-65
2024/04/01 05:30:09;;;;;;;5.90;2.67;;;;;;;;;;5045529;28;20044;-65
2024/04/01 05:32:38;;;;;;;7.53;2.65;;;;;;;;;;5052157;28;20057;-65
2024/04/01 05:35:10;;;;;;;9.73;2.60;;;;;;;;;;5031154;28;20052;-69
2024/04/01 05:37:36;;;;;;;7.82;2.80;;;;;;;;;;5043567;28;20103;-69
2024/04/01 05:40:07;;;;;;;4.68;2.25;;;;;;;;;;5041599;28;20049;-67
2024/04/01 05:42:36;;;;;;;8.05;3.00;;;;;;;;;;5040042;28;20057;-68
2024/04/01 05:45:04;;;;;;;7.60;3.15;;;;;;;;;;5037536;28;20048;-67
2024/04/01 05:47:30;;;;;;;7.43;2.80;;;;;;;;;;5042238;28;20159;-67
2024/04/01 05:49:56;;;;;;;8.15;3.40;;;;;;;;;;5033713;28;20055;-67
2024/04/01 05:52:23;;;;;;;6.53;3.15;;;;;;;;;;5041629;28;20049;-68
2024/04/01 05:54:49;;;;;;;6.88;3.10;;;;;;;;;;5048726;28;20302;-68
2024/04/01 05:57:19;;;;;;;5.72;2.58;;;;;;;;;;5043360;28;20044;-68
2024/04/01 05:59:46;;;;;;;5.82;2.38;;;;;;;;;;5043297;28;20079;-65
2024/04/01 06:02:13;;;;;;;5.15;2.25;;;;;;;;;;5050786;28;20112;-65
2024/04/01 06:04:38;;;;;;;4.78;2.50;;;;;;;;;;5047583;28;20052;-65
2024/04/01 06:07:05;;;;;;;6.15;2.30;;;;;;;;;;5050765;28;20099;-66
2024/04/01 06:09:33;;;;;;;5.95;2.78;;;;;;;;;;5042841;28;20060;-67
2024/04/01 06:11:59;;;;;;;6.90;2.43;;;;;;;;;;5026886;28;20056;-64
2024/04/01 06:14:27;;;;;;;6.05;2.78;;;;;;;;;;5046554;28;20226;-64
2024/04/01 06:16:53;;;;;;;4.80;2.25;;;;;;;;;;5049566;28;20454;-65
2024/04/01 06:19:22;;;;;;;6.75;2.70;;;;;;;;;;5047537;28;20207;-67
2024/04/01 06:21:48;;;;;;;11.23;4.55;;;;;;;;;;5048448;28;20060;-67
2024/04/01 06:24:15;;;;;;;8.20;3.40;;;;;;;;;;5018168;28;20048;-67
2024/04/01 06:26:40;;;;;;;7.38;2.92;;;;;;;;;;5053323;28;20056;-66
2024/04/01 06:29:07;;;;;;;5.45;2.58;;;;;;;;;;5053188;28;20557;-66
2024/04/01 06:31:35;;;;;;;8.23;2.78;;;;;;;;;;5052737;28;20060;-67
2024/04/01 06:34:01;;;;;;;8.27;2.80;;;;;;;;;;5015454;28;20201;-65
2024/04/01 06:36:27;;;;;;;6.40;2.60;;;;;;;;;;5044436;28;20056;-67
2024/04/01 06:38:54;;;;;;;5.75;2.28;;;;;;;;;;5046030;28;20067;-67
2024/04/01 06:41:19;;;;;;;4.97;2.13;;;;;;;;;;5039913;28;20048;-67
2024/04/01 06:43:46;;;;;;;6.32;2.80;;;;;;;;;;5024875;28;20073;-67
2024/04/01 06:46:12;;;;;;;5.05;2.60;;;;;;;;;;5023311;28;20131;-67
2024/04/01 06:48:40;;;;;;;4.68;2.50;;;;;;;;;;5044190;28;20056;-67
2024/04/01 06:51:06;;;;;;;5.60;2.88;;;;;;;;;;5052713;28;20131;-66
2024/04/01 06:53:37;;;;;;;5.85;2.70;;;;;;;;;;5038174;28;20059;-67
2024/04/01 06:56:03;;;;;;;5.15;2.15;;;;;;;;;;5048117;28;20076;-67
2024/04/01 06:58:30;;;;;;;3.72;1.90;;;;;;;;;;5049335;28;20048;-67
2024/04/01 07:00:56;;;;;;;3.85;1.67;;;;;;;;;;5055829;28;20129;-66
2024/04/01 07:03:23;;;;;;;3.30;1.73;;;;;;;;;;5046430;28;20061;-67
2024/04/01 07:05:50;;;;;;;3.60;1.75;;;;;;;;;;5025906;28;20056;-67
2024/04/01 07:08:17;;;;;;;4.47;1.90;;;;;;;;;;5047437;28;20127;-66
2024/04/01 07:10:45;;;;;;;4.75;1.70;;;;;;;;;;5037239;28;20072;-67
2024/04/01 07:13:12;;;;;;;4.32;2.13;;;;;;;;;;5022261;28;20106;-67
2024/04/01 07:15:38;;;;;;;10.00;2.20;;;;;;;;;;5016163;28;20059;-66
2024/04/01 07:18:05;;;;;;;6.45;2.08;;;;;;;;;;5034351;28;20052;-65
2024/04/01 07:20:33;;;;;;;3.58;2.00;;;;;;;;;;5042350;28;20056;-66
2024/04/01 07:23:01;;;;;;;3.92;1.90;;;;;;;;;;5047941;28;20052;-65
2024/04/01 07:25:27;;;;;;;3.92;1.88;;;;;;;;;;5027070;28;20055;-66
2024/04/01 07:27:56;;;;;;;12.73;5.47;;;;;;;;;;5047178;28;20062;-67
2024/04/01 07:30:24;;;;;;;8.48;3.50;;;;;;;;;;5052906;28;20064;-65
2024/04/01 07:32:51;;;;;;;6.25;3.13;;;;;;;;;;5051561;28;20052;-66
2024/04/01 07:35:20;;;;;;;8.93;3.80;;;;;;;;;;5042685;28;20056;-66
2024/04/01 07:37:47;;;;;;;6.75;3.63;;;;;;;;;;5047559;28;20052;-66
2024/04/01 07:40:14;;;;;;;9.63;5.25;;;;;;;;;;5048923;28;20049;-67
2024/04/01 07:42:42;;;;;;;6.05;2.20;;;;;;;;;;5045443;28;20061;-66
2024/04/01 07:45:11;;;;;;;4.68;1.98;;;;;;;;;;5042417;28;20060;-67
2024/04/01 07:47:37;;;;;;;4.15;2.05;;;;;;;;;;5056811;28;20054;-67
2024/04/01 07:50:05;;;;;;;5.07;2.45;;;;;;;;;;5061209;28;20056;-66
2024/04/01 07:52:32;;;;;;;8.20;4.00;;;;;;;;;;5064058;28;20082;-65
2024/04/01 07:54:57;;;;;;;7.60;3.20;;;;;;;;;;5027442;28;20049;-67
2024/04/01 07:57:30;;;;;;;16.27;4.47;;;;;;;;;;5043320;28;20057;-65
2024/04/01 07:59:56;;;;;;;11.20;3.22;;;;;;;;;;5047741;28;20403;-67
2024/04/01 08:02:23;;;;;;;5.07;2.35;;;;;;;;;;5050884;28;20056;-65
2024/04/01 08:04:49;;;;;;;4.80;2.40;;;;;;;;;;5050021;28;20060;-65
2024/04/01 08:07:18;;;;;;;7.22;2.72;;;;;;;;;;5058514;28;20053;-67
2024/04/01 08:09:43;;;;;;;;;;;;;;;;;;5059363;28;20056;-67
2024/04/01 08:12:10;;;;;;;10.65;4.53;;;;;;;;;;5054960;28;19931;-67
2024/04/01 08:14:37;;;;;;;11.00;4.88;;;;;;;;;;5049243;28;20064;-67
2024/04/01 08:17:04;;;;;;;7.65;3.13;;;;;;;;;;5061431;28;20056;-65
2024/04/01 08:19:30;;;;;;;5.32;2.63;;;;;;;;;;5062042;28;20060;-65
2024/04/01 08:21:57;;;;;;;7.20;2.78;;;;;;;;;;5047396;28;20057;-66
2024/04/01 08:24:23;;;;;;;5.50;2.38;;;;;;;;;;5026476;28;20120;-67
2024/04/01 08:26:51;;;;;;;5.43;2.63;;;;;;;;;;5032874;28;20044;-65
2024/04/01 08:29:17;;;;;;;6.93;2.70;;;;;;;;;;5040776;28;20053;-66
2024/04/01 08:31:45;;;;;;;5.80;2.78;;;;;;;;;;5054860;28;20070;-66
2024/04/01 08:34:12;;;;;;;6.28;2.80;;;;;;;;;;5029036;28;20087;-66
2024/04/01 08:36:39;;;;;;;4.95;2.58;;;;;;;;;;5039234;28;20048;-67
2024/04/01 08:39:10;;;;;;;7.75;3.33;;;;;;;;;;5039794;28;20053;-67
2024/04/01 08:41:41;;;;;;;7.00;3.22;;;;;;;;;;5046749;28;20234;-68
2024/04/01 08:44:14;;;;;;;8.43;3.95;;;;;;;;;;5017738;28;21068;-67
2024/04/01 08:46:44;;;;;;;6.00;3.20;;;;;;;;;;5039877;28;20056;-66
2024/04/01 08:49:15;;;;;;;5.88;2.97;;;;;;;;;;5056018;28;20126;-65
2024/04/01 08:51:44;;;;;;;6.18;3.10;;;;;;;;;;5036433;28;20825;-67
2024/04/01 08:54:12;;;;;;;6.47;2.90;;;;;;;;;;5002518;28;20158;-67
2024/04/01 08:56:43;;;;;;;7.43;3.17;;;;;;;;;;5034904;28;20056;-65
2024/04/01 08:59:09;;;;;;;6.95;2.92;;;;;;;;;;5041506;28;20057;-65
2024/04/01 09:01:36;;;;;;;5.68;2.88;;;;;;;;;;5043362;28;20171;-65
2024/04/01 09:04:03;;;;;;;7.47;4.03;;;;;;;;;;5015600;28;20135;-66
2024/04/01 09:06:31;;;;;;;15.25;6.20;;;;;;;;;;5041941;28;20154;-67
2024/04/01 09:08:57;;;;;;;7.88;3.20;;;;;;;;;;5059638;28;20064;-68
2024/04/01 09:11:27;;;;;;;8.77;3.22;;;;;;;;;;5038663;28;20125;-66
2024/04/01 09:13:53;;;;;;;7.65;3.28;;;;;;;;;;5015816;28;20056;-65
2024/04/01 09:16:21;;;;;;;6.13;2.90;;;;;;;;;;5039579;28;20113;-67
2024/04/01 09:18:48;;;;;;;8.10;3.50;;;;;;;;;;4967393;28;20213;-67
2024/04/01 09:21:18;;;;;;;6.70;2.70;;;;;;;;;;5022696;28;20049;-68
2024/04/01 09:23:49;;;;;;;5.40;3.00;;;;;;;;;;5019852;28;20114;-67
2024/04/01 09:26:16;;;;;;;6.40;3.05;;;;;;;;;;5016244;28;20130;-65
2024/04/01 09:28:42;;;;;;;6.38;3.30;;;;;;;;;;5022754;28;21102;-65
2024/04/01 09:31:11;;;;;;;8.25;3.45;;;;;;;;;;5022216;28;20136;-66
2024/04/01 09:33:39;;;;;;;5.93;3.17;;;;;;;;;;5019617;28;20072;-65
2024/04/01 09:36:10;;;;;;;9.30;3.75;;;;;;;;;;5010114;28;20057;-65
2024/04/01 09:38:35;;;;;;;12.93;6.72;;;;;;;;;;5021050;28;20084;-66
2024/04/01 09:41:06;;;;;;;10.68;4.45;;;;;;;;;;5021320;28;20059;-66
2024/04/01 09:43:33;;;;;;;9.90;4.50;;;;;;;;;;5019122;28;20816;-65
2024/04/01 09:46:00;;;;;;;5.93;3.25;;;;;;;;;;4997555;28;20063;-66
2024/04/01 09:48:28;;;;;;;6.73;3.37;;;;;;;;;;5030062;28;20050;-65
2024/04/01 09:50:58;;;;;;;7.43;3.20;;;;;;;;;;5020512;28;20057;-67
2024/04/01 09:53:26;;;;;;;6.35;2.95;;;;;;;;;;5019809;28;20428;-65
2024/04/01 09:56:29;;;;;;;6.03;2.67;;;;;;;;;;4985118;28;20202;-66
2024/04/01 09:59:29;;;;;;;5.68;2.78;;;;;;;;;;5021137;28;20076;-66
2024/04/01 10:02:18;;;;;;;5.85;2.83;;;;;;;;;;5030997;28;20080;-65
2024/04/01 10:05:12;;;;;;;6.00;2.78;;;;;;;;;;4984087;28;20057;-64
2024/04/01 10:08:13;;;;;;;7.78;3.75;;;;;;;;;;5019378;28;20053;-64
2024/04/01 10:11:19;;;;;;;14.18;5.15;;;;;;;;;;5019609;28;20061;-67
2024/04/01 10:14:26;;;;;;;9.65;4.00;;;;;;;;;;5001021;28;20056;-67
2024/04/01 10:17:09;;;;;;;6.97;3.65;;;;;;;;;;5033979;28;20726;-65
2024/04/01 10:20:14;;;;;;;6.80;3.40;;;;;;;;;;5021452;28;20096;-64
2024/04/01 10:23:20;;;;;;;6.88;2.40;;;;;;;;;;5013942;28;20064;-66
2024/04/01 10:26:29;;;;;;;5.97;2.63;;;;;;;;;;4995245;28;20116;-66
2024/04/01 10:29:37;;;;;;;7.68;2.83;;;;;;;;;;4979742;28;20147;-66
2024/04/01 10:32:34;;;;;;;;;;;;;;;;;;5016881;28;20198;-67
2024/04/01 10:35:28;;;;;;;5.28;2.63;;;;;;;;;;4977657;28;19928;-65
2024/04/01 10:38:32;;;;;;;4.93;2.67;;;;;;;;;;5030742;28;20049;-67
2024/04/01 10:41:34;;;;;;;5.65;2.83;;;;;;;;;;5021044;28;20057;-67
2024/04/01 10:44:41;;;;;;;5.70;2.95;;;;;;;;;;5021499;28;20061;-66
2024/04/01 10:47:35;;;;;;;6.43;3.03;;;;;;;;;;5007467;28;20068;-65
2024/04/01 10:50:22;;;;;;;5.53;2.88;;;;;;;;;;5015980;28;20066;-68
2024/04/01 10:53:05;;;;;;;8.63;3.75;;;;;;;;;;5020472;28;20067;-65
2024/04/01 10:56:06;;;;;;;6.10;3.03;;;;;;;;;;4988285;28;20361;-68
2024/04/01 10:59:01;;;;;;;10.98;3.63;;;;;;;;;;5016617;28;20056;-67
2024/04/01 11:01:44;;;;;;;6.55;3.55;;;;;;;;;;5019874;28;20104;-66
2024/04/01 11:04:44;;;;;;;8.60;3.75;;;;;;;;;;5006244;28;20127;-68
2024/04/01 11:07:26;;;;;;;10.55;3.97;;;;;;;;;;4969176;28;20057;-68
2024/04/01 11:10:08;;;;;;;8.02;3.95;;;;;;;;;;5003355;28;20048;-68
2024/04/01 11:12:41;;;;;;;10.27;3.15;;;;;;;;;;5009039;28;20045;-66
2024/04/01 11:17:53;;;;;;;7.95;3.22;;;;;;;;;;4948048;27;20261;-73
2024/04/01 11:20:42;;;;;;;6.45;2.97;;;;;;;;;;5020290;28;20061;-73
2024/04/01 11:23:42;;;;;;;6.38;2.60;;;;;;;;;;4992336;28;20053;-72
2024/04/01 11:26:27;;;;;;;9.38;3.17;;;;;;;;;;4995385;28;20104;-72
2024/04/01 11:29:12;;;;;;;9.27;3.08;;;;;;;;;;5011751;28;20142;-74
2024/04/01 11:31:46;;;;;;;6.38;2.67;;;;;;;;;;5030382;28;20112;-74
2024/04/01 11:34:26;;;;;;;9.25;2.80;;;;;;;;;;4992091;28;20067;-71
2024/04/01 11:37:04;;;;;;;7.57;2.58;;;;;;;;;;5016920;28;20053;-72
2024/04/01 11:39:32;;;;;;;7.20;2.75;;;;;;;;;;5001697;28;20069;-72
2024/04/01 11:42:02;;;;;;;7.70;2.25;;;;;;;;;;4997459;28;20062;-72
2024/04/01 11:44:31;;;;;;;5.80;2.15;;;;;;;;;;4997247;28;20058;-72
2024/04/01 11:47:02;;;;;;;7.28;2.50;;;;;;;;;;4968954;28;20057;-73
2024/04/01 11:49:52;;;;;;;8.15;1.90;;;;;;;;;;4997492;28;20057;-73
2024/04/01 11:52:24;;;;;;;5.88;2.30;;;;;;;;;;4995341;28;20057;-72
2024/04/01 11:54:50;;;;;;;8.30;2.60;;;;;;;;;;4992340;28;20066;-73
2024/04/01 11:57:24;;;;;;;12.40;3.78;;;;;;;;;;5027365;28;20056;-72
2024/04/01 11:59:50;;;;;;;5.15;2.00;;;;;;;;;;4991923;28;20050;-72
2024/04/01 12:02:19;;;;;;;13.35;4.10;;;;;;;;;;4998998;28;20053;-72
2024/04/01 12:04:59;;;;;;;6.95;2.58;;;;;;;;;;5003457;28;20053;-72
2024/04/01 12:07:28;;;;;;;10.60;2.20;;;;;;;;;;5004356;28;20054;-72
2024/04/01 12:09:54;;;;;;;3.92;1.90;;;;;;;;;;4992493;28;20053;-71
2024/04/01 12:12:25;;;;;;;9.05;1.85;;;;;;;;;;4996525;28;20129;-73
2024/04/01 12:14:52;;;;;;;4.68;1.75;;;;;;;;;;4992082;28;20070;-72
2024/04/01 12:17:22;;;;;;;3.17;1.58;;;;;;;;;;4992684;28;20058;-72
2024/04/01 12:19:53;;;;;;;6.57;1.70;;;;;;;;;;4993651;28;20180;-72
2024/04/01 12:22:23;;;;;;;5.00;1.63;;;;;;;;;;4993386;28;20052;-72
2024/04/01 12:24:50;;;;;;;6.93;1.92;;;;;;;;;;4981085;28;20052;-72
2024/04/01 12:27:20;;;;;;;8.50;1.70;;;;;;;;;;4968054;28;20130;-73
2024/04/01 12:29:50;;;;;;;7.72;2.25;;;;;;;;;;4992596;28;20070;-72
2024/04/01 12:32:20;;;;;;;2.33;1.55;;;;;;;;;;4963818;28;20062;-72
2024/04/01 12:34:46;;;;;;;6.22;2.10;;;;;;;;;;4960715;28;20072;-72
2024/04/01 12:37:16;;;;;;;10.43;1.88;;;;;;;;;;4970409;28;20058;-72
2024/04/01 12:39:45;;;;;;;12.27;1.85;;;;;;;;;;4959687;28;20042;-72
2024/04/01 12:42:13;;;;;;;8.48;1.90;;;;;;;;;;4961709;28;20074;-72
2024/04/01 12:44:43;;;;;;;5.88;2.10;;;;;;;;;;4961863;28;20190;-71
2024/04/01 12:47:13;;;;;;;5.38;2.47;;;;;;;;;;4977514;28;20054;-72
2024/04/01 12:49:41;;;;;;;7.60;1.95;;;;;;;;;;5013376;28;20077;-72
2024/04/01 12:52:09;;;;;;;1.67;1.25;;;;;;;;;;4976906;28;20050;-72
2024/04/01 12:54:53;;;;;;;5.97;1.92;;;;;;;;;;5010074;28;20050;-72
2024/04/01 12:57:39;;;;;;;8.48;2.10;;;;;;;;;;4982479;28;20146;-73
2024/04/01 13:00:08;;;;;;;7.30;1.83;;;;;;;;;;4972793;28;20046;-71
2024/04/01 13:03:08;;;;;;;3.70;1.77;;;;;;;;;;4981657;28;20189;-71
2024/04/01 13:05:47;;;;;;;7.55;2.45;;;;;;;;;;4961148;28;20055;-72
2024/04/01 13:08:27;;;;;;;5.63;2.42;;;;;;;;;;4998935;28;20053;-72
2024/04/01 13:11:08;;;;;;;6.22;1.40;;;;;;;;;;4972237;28;20069;-70
2024/04/01 13:13:51;;;;;;;4.72;1.98;;;;;;;;;;4973120;28;20062;-70
2024/04/01 13:16:28;;;;;;;7.82;3.17;;;;;;;;;;4988901;28;20137;-70
2024/04/01 13:19:05;;;;;;;5.15;1.38;;;;;;;;;;4986741;28;20051;-69
2024/04/01 13:21:39;;;;;;;10.23;3.45;;;;;;;;;;4986157;28;20051;-69
2024/04/01 13:24:11;;;;;;;15.98;6.43;;;;;;;;;;4945225;28;20138;-70
2024/04/01 13:26:43;;;;;;;10.32;4.15;;;;;;;;;;4958864;28;20129;-72
2024/04/01 13:29:13;;;;;;;7.50;3.63;;;;;;;;;;4955564;28;20050;-77
2024/04/01 13:31:53;;;;;;;6.85;3.13;;;;;;;;;;4960119;28;20069;-70
2024/04/01 13:34:29;;;;;;;10.32;3.28;;;;;;;;;;4949885;28;20062;-71
2024/04/01 13:37:11;;;;;;;19.48;5.35;;;;;;;;;;4992979;28;20108;-70
2024/04/01 13:39:57;;;;;;;6.72;2.22;;;;;;;;;;4978297;28;20054;-72
2024/04/01 13:42:35;;;;;;;10.07;3.03;;;;;;;;;;4996226;28;20050;-72
2024/04/01 13:45:14;;;;;;;7.03;2.50;;;;;;;;;;4981622;28;20061;-72
2024/04/01 13:47:55;;;;;;;7.93;2.28;;;;;;;;;;4975462;28;20058;-72
2024/04/01 13:50:33;;;;;;;6.57;2.92;;;;;;;;;;4989628;28;20182;-71
2024/04/01 13:53:33;;;;;;;9.52;2.40;;;;;;;;;;4979549;28;20046;-71
2024/04/01 13:56:21;;;;;;;5.55;2.63;;;;;;;;;;4963556;28;20054;-72
2024/04/01 13:58:51;;;;;;;9.35;3.65;;;;;;;;;;4984531;28;20054;-72
2024/04/01 14:01:36;;;;;;;6.15;2.80;;;;;;;;;;4988856;28;20084;-72
2024/04/01 14:04:17;;;;;;;6.72;2.45;;;;;;;;;;4985374;28;20049;-70
2024/04/01 14:06:56;;;;;;;6.78;2.15;;;;;;;;;;4929313;28;20058;-72
2024/04/01 14:09:26;;;;;;;;;;;;;;;;;;4980034;28;20061;-72
2024/04/01 14:12:13;;;;;;;6.53;2.20;;;;;;;;;;4975161;28;19926;-72
2024/04/01 14:14:57;;;;;;;3.67;2.08;;;;;;;;;;4970544;28;20064;-72
2024/04/01 14:17:37;;;;;;;5.45;2.33;;;;;;;;;;4945665;28;20058;-70
2024/04/01 14:20:11;;;;;;;6.32;2.50;;;;;;;;;;4970439;28;20098;-71
2024/04/01 14:22:42;;;;;;;6.55;2.42;;;;;;;;;;5014793;28;20046;-71
2024/04/01 14:25:09;;;;;;;5.72;2.25;;;;;;;;;;4960995;28;20053;-71
2024/04/01 14:27:37;;;;;;;4.47;2.40;;;;;;;;;;4946819;28;20070;-72
2024/04/01 14:30:22;;;;;;;6.47;2.30;;;;;;;;;;4976032;28;20050;-71
2024/04/01 14:32:50;;;;;;;4.80;2.20;;;;;;;;;;4979644;28;20316;-71
2024/04/01 14:35:20;;;;;;;7.07;2.63;;;;;;;;;;4973488;28;20046;-70
2024/04/01 14:37:48;;;;;;;4.53;2.83;;;;;;;;;;4989244;28;20058;-73
2024/04/01 14:40:14;;;;;;;3.88;2.17;;;;;;;;;;4959290;28;20062;-72
2024/04/01 14:42:42;;;;;;;5.38;2.33;;;;;;;;;;4991305;28;20082;-73
2024/04/01 14:45:10;;;;;;;4.75;2.53;;;;;;;;;;4953089;28;20093;-71
2024/04/01 14:47:38;;;;;;;4.18;2.13;;;;;;;;;;4999206;28;20057;-71
2024/04/01 14:50:07;;;;;;;5.28;2.33;;;;;;;;;;4959315;28;20098;-72
2024/04/01 14:52:35;;;;;;;3.35;1.70;;;;;;;;;;4999746;28;20057;-72
2024/04/01 14:55:05;;;;;;;2.88;1.88;;;;;;;;;;4959591;28;20059;-71
2024/04/01 14:57:34;;;;;;;4.22;2.13;;;;;;;;;;4980138;28;20101;-72
2024/04/01 15:00:03;;;;;;;4.47;1.98;;;;;;;;;;5004255;28;20339;-70
2024/04/01 15:02:34;;;;;;;5.93;2.75;;;;;;;;;;4978206;28;20156;-71
2024/04/01 15:05:00;;;;;;;7.10;3.13;;;;;;;;;;4982446;28;20050;-72
2024/04/01 15:07:28;;;;;;;10.07;4.63;;;;;;;;;;4981776;28;20137;-72
2024/04/01 15:09:54;;;;;;;10.93;3.73;;;;;;;;;;4981280;28;20054;-72